createdAt,value
2023-03-04T00:00:45.808Z,48.90
2023-03-04T00:03:23.681Z,42.60
2023-03-04T00:05:51.392Z,45.30
2023-03-04T00:08:19.259Z,45.40
2023-03-04T00:10:47.409Z,43.92
2023-03-04T00:13:16.853Z,38.90
2023-03-04T00:15:44.566Z,37.05
2023-03-04T00:18:12.494Z,41.42
2023-03-04T00:20:40.188Z,36.25
2023-03-04T00:23:08.182Z,38.05
2023-03-04T00:25:35.840Z,41.55
2023-03-04T00:28:04.026Z,36.53
2023-03-04T00:30:33.135Z,40.17
2023-03-04T00:33:01.415Z,38.13
2023-03-04T00:35:29.048Z,40.53
2023-03-04T00:37:57.117Z,41.30
2023-03-04T00:40:24.879Z,36.97
2023-03-04T00:42:52.878Z,43.33
2023-03-04T00:45:20.486Z,40.33
2023-03-04T00:47:48.499Z,39.75
2023-03-04T00:50:16.263Z,41.45
2023-03-04T00:52:44.195Z,43.95
2023-03-04T00:55:11.904Z,36.72
2023-03-04T00:57:39.855Z,46.30
2023-03-04T01:00:09.881Z,41.22
2023-03-04T01:02:38.127Z,42.63
2023-03-04T01:05:06.785Z,44.45
2023-03-04T01:07:34.759Z,46.22
2023-03-04T01:10:02.530Z,45.58
2023-03-04T01:12:30.439Z,44.60
2023-03-04T01:15:00.112Z,48.05
2023-03-04T01:17:28.117Z,43.22
2023-03-04T01:19:55.765Z,47.72
2023-03-04T01:22:23.753Z,49.08
2023-03-04T01:24:51.425Z,46.33
2023-03-04T01:27:19.631Z,49.78
2023-03-04T01:29:47.221Z,44.72
2023-03-04T01:32:15.509Z,48.33
2023-03-04T01:34:43.274Z,49.60
2023-03-04T01:37:11.687Z,53.85
2023-03-04T01:39:39.787Z,48.38
2023-03-04T01:42:17.817Z,55.95
2023-03-04T01:44:46.371Z,54.65
2023-03-04T01:47:14.599Z,59.65
2023-03-04T01:49:42.352Z,59.00
2023-03-04T01:52:14.428Z,51.42
2023-03-04T01:54:42.674Z,54.03
2023-03-04T01:57:19.059Z,55.67
2023-03-04T01:59:47.911Z,53.58
2023-03-04T02:02:16.037Z,53.50
2023-03-04T02:04:43.803Z,53.08
2023-03-04T02:07:11.832Z,50.60
2023-03-04T02:09:39.489Z,55.17
2023-03-04T02:12:07.448Z,57.20
2023-03-04T02:14:35.078Z,56.65
2023-03-04T02:17:03.015Z,57.83
2023-03-04T02:20:01.052Z,50.58
2023-03-04T02:22:29.109Z,50.28
2023-03-04T02:25:15.612Z,52.55
2023-03-04T02:27:43.556Z,48.05
2023-03-04T02:30:13.596Z,47.95
2023-03-04T02:32:41.912Z,46.05
2023-03-04T02:35:18.401Z,45.63
2023-03-04T02:37:47.201Z,45.45
2023-03-04T02:40:22.302Z,47.33
2023-03-04T02:42:50.289Z,49.33
2023-03-04T02:45:39.752Z,44.55
2023-03-04T02:48:09.720Z,47.50
2023-03-04T02:50:45.403Z,42.05
2023-03-04T02:53:13.991Z,42.53
2023-03-04T02:55:43.649Z,44.05
2023-03-04T02:58:13.548Z,48.13
2023-03-04T03:00:42.238Z,49.72
2023-03-04T03:03:10.707Z,46.60
2023-03-04T03:05:38.828Z,43.75
2023-03-04T03:08:08.604Z,48.38
2023-03-04T03:10:36.548Z,46.58
2023-03-04T03:13:06.441Z,50.03
2023-03-04T03:15:34.322Z,41.58
2023-03-04T03:18:02.413Z,45.10
2023-03-04T03:20:30.148Z,48.83
2023-03-04T03:22:58.058Z,45.22
2023-03-04T03:25:25.678Z,50.97
2023-03-04T03:27:54.921Z,48.50
2023-03-04T03:30:23.078Z,50.33
2023-03-04T03:32:51.008Z,46.60
2023-03-04T03:35:18.920Z,51.67
2023-03-04T03:37:49.054Z,48.80
2023-03-04T03:40:16.821Z,52.25
2023-03-04T03:42:44.803Z,50.20
2023-03-04T03:45:12.849Z,45.78
2023-03-04T03:47:40.847Z,46.95
2023-03-04T03:50:09.041Z,49.72
2023-03-04T03:52:37.033Z,47.35
2023-03-04T03:55:05.020Z,48.03
2023-03-04T03:57:32.940Z,53.28
2023-03-04T04:00:00.682Z,51.38
2023-03-04T04:02:28.819Z,52.33
2023-03-04T04:04:56.560Z,49.90
2023-03-04T04:07:24.510Z,50.67
2023-03-04T04:09:52.277Z,51.88
2023-03-04T04:12:21.028Z,48.08
2023-03-04T04:14:48.747Z,46.83
2023-03-04T04:17:16.752Z,50.67
2023-03-04T04:19:44.568Z,52.70
2023-03-04T04:22:16.540Z,49.42
2023-03-04T04:24:44.491Z,40.05
2023-03-04T04:27:12.907Z,45.92
2023-03-04T04:29:41.114Z,42.53
2023-03-04T04:32:09.253Z,47.58
2023-03-04T04:34:37.104Z,53.05
2023-03-04T04:37:05.016Z,48.78
2023-03-04T04:39:32.681Z,49.15
2023-03-04T04:42:00.584Z,50.15
2023-03-04T04:44:28.355Z,45.05
2023-03-04T04:46:56.267Z,44.80
2023-03-04T04:49:24.382Z,48.65
2023-03-04T04:51:52.290Z,52.47
2023-03-04T04:54:19.941Z,51.40
2023-03-04T04:56:47.911Z,39.35
2023-03-04T04:59:15.581Z,47.10
2023-03-04T05:01:43.657Z,42.63
2023-03-04T05:04:11.420Z,44.42
2023-03-04T05:06:39.396Z,42.78
2023-03-04T05:09:07.328Z,43.05
2023-03-04T05:11:35.722Z,45.17
2023-03-04T05:14:03.350Z,44.38
2023-03-04T05:16:31.381Z,41.47
2023-03-04T05:18:59.037Z,38.70
2023-03-04T05:21:27.090Z,40.75
2023-03-04T05:23:54.852Z,42.47
2023-03-04T05:26:22.772Z,38.65
2023-03-04T05:28:50.455Z,40.45
2023-03-04T05:31:18.504Z,42.55
2023-03-04T05:33:46.166Z,38.20
2023-03-04T05:36:14.104Z,40.58
2023-03-04T05:38:41.861Z,40.53
2023-03-04T05:41:09.866Z,45.67
2023-03-04T05:43:42.696Z,37.30
2023-03-04T05:46:15.368Z,38.42
2023-03-04T05:48:44.033Z,40.83
2023-03-04T05:51:12.163Z,36.72
2023-03-04T05:53:41.034Z,41.75
2023-03-04T05:56:11.071Z,36.28
2023-03-04T05:58:39.385Z,41.85
2023-03-04T06:01:08.948Z,39.78
2023-03-04T06:03:37.221Z,36.53
2023-03-04T06:06:05.653Z,42.10
2023-03-04T06:08:33.437Z,44.38
2023-03-04T06:11:01.335Z,38.20
2023-03-04T06:13:29.198Z,43.08
2023-03-04T06:15:58.649Z,37.10
2023-03-04T06:18:28.254Z,35.78
2023-03-04T06:21:00.677Z,37.55
2023-03-04T06:23:29.471Z,35.20
2023-03-04T06:26:00.109Z,37.05
2023-03-04T06:28:28.603Z,37.50
2023-03-04T06:30:58.033Z,37.00
2023-03-04T06:33:26.420Z,34.00
2023-03-04T06:35:56.728Z,36.67
2023-03-04T06:38:25.804Z,34.72
2023-03-04T06:40:56.725Z,35.03
2023-03-04T06:43:25.038Z,37.20
2023-03-04T06:45:53.120Z,33.05
2023-03-04T06:48:20.753Z,31.73
2023-03-04T06:50:48.717Z,35.20
2023-03-04T06:53:16.572Z,31.98
2023-03-04T06:55:44.496Z,34.38
2023-03-04T06:58:12.137Z,36.75
2023-03-04T07:00:40.089Z,34.47
2023-03-04T07:03:08.061Z,33.10
2023-03-04T07:05:36.323Z,35.30
2023-03-04T07:08:04.037Z,34.80
2023-03-04T07:10:31.965Z,33.00
2023-03-04T07:12:59.674Z,31.85
2023-03-04T07:15:27.948Z,31.63
2023-03-04T07:17:55.770Z,34.95
2023-03-04T07:20:24.432Z,36.05
2023-03-04T07:22:52.581Z,35.28
2023-03-04T07:25:20.448Z,34.00
2023-03-04T07:27:48.023Z,31.88
2023-03-04T07:30:16.140Z,31.30
2023-03-04T07:32:43.840Z,33.97
2023-03-04T07:35:11.780Z,31.25
2023-03-04T07:37:40.602Z,35.80
2023-03-04T07:40:09.362Z,31.85
2023-03-04T07:42:37.374Z,33.05
2023-03-04T07:45:11.405Z,33.70
2023-03-04T07:47:41.459Z,33.47
2023-03-04T07:50:10.649Z,32.67
2023-03-04T07:52:42.674Z,41.15
2023-03-04T07:55:12.345Z,34.67
2023-03-04T07:57:43.842Z,34.10
2023-03-04T08:00:13.442Z,37.30
2023-03-04T08:02:41.540Z,45.80
2023-03-04T08:05:10.025Z,35.08
2023-03-04T08:07:37.708Z,29.77
2023-03-04T08:10:06.176Z,44.58
2023-03-04T08:12:34.478Z,30.75
2023-03-04T08:15:02.904Z,32.75
2023-03-04T08:17:30.578Z,28.25
2023-03-04T08:19:58.529Z,29.20
2023-03-04T08:22:26.217Z,26.38
2023-03-04T08:24:54.185Z,31.63
2023-03-04T08:27:21.955Z,30.83
2023-03-04T08:29:49.883Z,31.13
2023-03-04T08:32:17.758Z,31.40
2023-03-04T08:34:45.960Z,29.25
2023-03-04T08:37:13.694Z,33.00
2023-03-04T08:39:41.560Z,26.85
2023-03-04T08:42:09.285Z,30.90
2023-03-04T08:44:37.233Z,27.08
2023-03-04T08:47:04.914Z,27.75
2023-03-04T08:49:32.779Z,30.05
2023-03-04T08:52:00.408Z,27.10
2023-03-04T08:54:28.363Z,28.98
2023-03-04T08:56:56.019Z,26.25
2023-03-04T08:59:24.058Z,25.35
2023-03-04T09:01:51.863Z,30.17
2023-03-04T09:04:19.848Z,28.02
2023-03-04T09:06:47.586Z,24.73
2023-03-04T09:09:15.537Z,29.48
2023-03-04T09:11:43.206Z,28.98
2023-03-04T09:14:11.075Z,29.00
2023-03-04T09:16:38.727Z,28.40
2023-03-04T09:19:06.633Z,29.23
2023-03-04T09:21:34.412Z,29.17
2023-03-04T09:24:02.391Z,25.50
2023-03-04T09:26:30.640Z,30.50
2023-03-04T09:29:01.301Z,31.27
2023-03-04T09:31:29.670Z,25.77
2023-03-04T09:33:59.479Z,25.52
2023-03-04T09:36:27.244Z,26.40
2023-03-04T09:38:55.208Z,27.80
2023-03-04T09:41:26.772Z,29.50
2023-03-04T09:43:56.106Z,24.55
2023-03-04T09:46:51.025Z,27.30
2023-03-04T09:49:21.696Z,20.85
2023-03-04T09:52:11.044Z,30.73
2023-03-04T09:55:25.303Z,22.98
2023-03-04T09:57:57.329Z,29.52
2023-03-04T10:00:26.442Z,29.35
2023-03-04T10:03:18.585Z,25.55
2023-03-04T10:06:04.601Z,28.10
2023-03-04T10:08:41.771Z,26.20
2023-03-04T10:11:31.864Z,31.25
2023-03-04T10:14:27.045Z,27.40
2023-03-04T10:17:21.356Z,33.88
2023-03-04T10:20:01.357Z,29.90
2023-03-04T10:22:41.783Z,32.20
2023-03-04T10:25:22.282Z,27.25
2023-03-04T10:27:57.147Z,23.90
2023-03-04T10:31:01.909Z,30.48
2023-03-04T10:33:32.842Z,30.95
2023-03-04T10:36:05.383Z,28.77
2023-03-04T10:38:36.272Z,24.83
2023-03-04T10:41:14.239Z,28.70
2023-03-04T10:43:45.282Z,26.40
2023-03-04T10:46:15.615Z,25.55
2023-03-04T10:48:44.958Z,32.42
2023-03-04T10:51:25.540Z,27.25
2023-03-04T10:53:57.811Z,28.42
2023-03-04T10:56:38.296Z,30.65
2023-03-04T10:59:33.511Z,23.02
2023-03-04T11:02:11.089Z,27.77
2023-03-04T11:04:39.045Z,30.73
2023-03-04T11:07:11.150Z,27.98
2023-03-04T11:09:40.415Z,28.23
2023-03-04T11:12:14.242Z,30.55
2023-03-04T11:14:50.969Z,35.17
2023-03-04T11:17:42.195Z,32.70
2023-03-04T11:20:31.804Z,29.60
2023-03-04T11:23:10.976Z,30.08
2023-03-04T11:25:47.843Z,29.35
2023-03-04T11:28:24.340Z,30.73
2023-03-04T11:31:03.298Z,31.65
2023-03-04T11:33:47.466Z,29.60
2023-03-04T11:36:54.948Z,29.70
2023-03-04T11:39:41.457Z,30.60
2023-03-04T11:42:24.142Z,27.75
2023-03-04T11:44:52.787Z,25.10
2023-03-04T11:47:47.626Z,31.25
2023-03-04T11:50:18.339Z,31.83
2023-03-04T11:53:00.550Z,25.48
2023-03-04T11:55:34.157Z,28.33
2023-03-04T12:00:53.144Z,29.25
2023-03-04T12:03:48.895Z,33.38
2023-03-04T12:06:43.262Z,33.53
2023-03-04T12:09:17.035Z,28.15
2023-03-04T12:12:01.352Z,26.70
2023-03-04T12:14:35.166Z,28.92
2023-03-04T12:17:20.959Z,30.88
2023-03-04T12:19:59.647Z,29.38
2023-03-04T12:22:58.053Z,29.60
2023-03-04T12:25:50.424Z,28.08
2023-03-04T12:29:06.358Z,26.83
2023-03-04T12:31:45.667Z,26.40
2023-03-04T12:34:53.652Z,26.02
2023-03-04T12:37:36.618Z,22.40
2023-03-04T12:40:23.779Z,27.08
2023-03-04T12:42:57.533Z,23.80
2023-03-04T12:45:43.756Z,21.85
2023-03-04T12:48:30.701Z,22.33
2023-03-04T12:51:31.425Z,21.88
2023-03-04T12:54:26.004Z,22.70
2023-03-04T12:57:11.775Z,22.90
2023-03-04T12:59:50.307Z,18.58
2023-03-04T13:02:51.674Z,18.15
2023-03-04T13:05:25.238Z,19.35
2023-03-04T13:08:28.377Z,18.85
2023-03-04T13:11:02.848Z,20.33
2023-03-04T13:13:38.196Z,18.08
2023-03-04T13:16:32.690Z,21.02
2023-03-04T13:19:00.567Z,16.23
2023-03-04T13:21:32.784Z,13.27
2023-03-04T13:24:32.729Z,17.92
2023-03-04T13:27:00.746Z,15.70
2023-03-04T13:29:31.889Z,17.38
2023-03-04T13:32:10.602Z,18.17
2023-03-04T13:34:54.602Z,18.60
2023-03-04T13:40:23.461Z,15.85
2023-03-04T13:42:51.840Z,20.40
2023-03-04T13:45:37.233Z,16.45
2023-03-04T13:48:23.731Z,16.48
2023-03-04T13:50:52.244Z,8.65
2023-03-04T13:53:37.694Z,14.23
2023-03-04T13:56:08.875Z,13.13
2023-03-04T13:58:38.185Z,8.23
2023-03-04T14:01:07.473Z,7.00
2023-03-04T14:03:35.892Z,7.57
2023-03-04T14:06:22.178Z,11.70
2023-03-04T14:08:51.911Z,8.55
2023-03-04T14:11:33.039Z,10.05
2023-03-04T14:14:05.934Z,12.75
2023-03-04T14:16:39.855Z,10.15
2023-03-04T14:19:15.194Z,16.02
2023-03-04T14:21:47.079Z,10.52
2023-03-04T14:24:18.388Z,8.35
2023-03-04T14:26:47.217Z,10.25
2023-03-04T14:29:28.056Z,12.23
2023-03-04T14:31:56.814Z,9.10
2023-03-04T14:34:33.469Z,12.82
2023-03-04T14:37:03.203Z,13.73
2023-03-04T14:39:35.848Z,10.23
2023-03-04T14:42:10.599Z,7.72
2023-03-04T14:44:44.835Z,10.15
2023-03-04T14:47:38.329Z,8.68
2023-03-04T14:50:15.048Z,7.70
2023-03-04T14:52:48.741Z,11.77
2023-03-04T14:55:28.667Z,7.85
2023-03-04T14:58:08.632Z,9.48
2023-03-04T15:00:41.715Z,7.30
2023-03-04T15:03:30.190Z,7.57
2023-03-04T15:06:23.058Z,6.60
2023-03-04T15:09:09.238Z,7.97
2023-03-04T15:11:48.147Z,6.25
2023-03-04T15:14:51.120Z,13.55
2023-03-04T15:17:39.393Z,8.38
2023-03-04T15:20:07.042Z,5.82
2023-03-04T15:22:56.125Z,6.82
2023-03-04T15:25:24.132Z,6.53
2023-03-04T15:27:54.134Z,6.88
2023-03-04T15:30:33.812Z,5.45
2023-03-04T15:33:01.923Z,4.28
2023-03-04T15:35:33.047Z,3.78
2023-03-04T15:38:01.656Z,4.43
2023-03-04T15:40:34.601Z,8.13
2023-03-04T15:43:04.194Z,6.00
2023-03-04T15:45:38.226Z,7.72
2023-03-04T15:48:08.260Z,6.03
2023-03-04T15:50:38.913Z,5.15
2023-03-04T15:53:10.618Z,4.25
2023-03-04T15:55:38.316Z,4.95
2023-03-04T15:58:07.144Z,5.20
2023-03-04T16:00:34.878Z,6.97
2023-03-04T16:03:03.010Z,7.78
2023-03-04T16:05:31.501Z,7.97
2023-03-04T16:07:59.446Z,5.70
2023-03-04T16:10:30.795Z,7.13
2023-03-04T16:12:59.470Z,11.35
2023-03-04T16:15:29.994Z,5.00
2023-03-04T16:17:58.355Z,4.50
2023-03-04T16:20:30.094Z,5.70
2023-03-04T16:23:00.669Z,4.97
2023-03-04T16:25:30.227Z,5.60
2023-03-04T16:28:04.058Z,4.60
2023-03-04T16:30:32.512Z,7.53
2023-03-04T16:33:01.187Z,6.78
2023-03-04T16:35:29.697Z,5.85
2023-03-04T16:37:58.586Z,7.13
2023-03-04T16:40:29.975Z,5.78
2023-03-04T16:46:44.054Z,4.60
2023-03-04T16:49:12.157Z,6.28
2023-03-04T16:51:49.886Z,11.18
2023-03-04T16:54:26.114Z,6.00
2023-03-04T16:56:53.787Z,3.70
2023-03-04T16:59:21.658Z,3.42
2023-03-04T17:01:49.978Z,5.05
2023-03-04T17:04:17.884Z,6.07
2023-03-04T17:06:45.764Z,3.85
2023-03-04T17:09:13.727Z,2.40
2023-03-04T17:11:41.497Z,3.17
2023-03-04T17:14:09.403Z,8.38
2023-03-04T17:16:37.108Z,8.75
2023-03-04T17:19:05.145Z,5.47
2023-03-04T17:21:32.773Z,4.85
2023-03-04T17:24:00.770Z,3.00
2023-03-04T17:26:28.430Z,2.90
2023-03-04T17:28:56.287Z,7.57
2023-03-04T17:31:24.043Z,5.47
2023-03-04T17:33:52.106Z,4.20
2023-03-04T17:36:20.221Z,3.42
2023-03-04T17:38:49.592Z,3.55
2023-03-04T17:41:18.786Z,2.47
2023-03-04T17:43:49.343Z,2.85
2023-03-04T17:46:22.292Z,5.25
2023-03-04T17:48:53.014Z,2.63
2023-03-04T17:51:21.156Z,3.08
2023-03-04T17:53:49.155Z,3.40
2023-03-04T17:56:16.967Z,4.45
2023-03-04T17:58:44.953Z,3.20
2023-03-04T18:01:19.426Z,2.90
2023-03-04T18:03:47.916Z,4.22
2023-03-04T18:06:17.095Z,7.10
2023-03-04T18:08:45.467Z,3.22
2023-03-04T18:11:13.702Z,2.67
2023-03-04T18:13:43.068Z,5.10
2023-03-04T18:16:12.025Z,3.67
2023-03-04T18:18:40.355Z,3.85
2023-03-04T18:21:08.301Z,3.08
2023-03-04T18:23:36.661Z,3.15
2023-03-04T18:26:04.514Z,2.72
2023-03-04T18:28:32.463Z,3.88
2023-03-04T18:31:01.186Z,5.63
2023-03-04T18:33:30.464Z,5.80
2023-03-04T18:35:59.997Z,6.53
2023-03-04T18:38:28.805Z,3.58
2023-03-04T18:41:01.600Z,4.35
2023-03-04T18:43:29.673Z,3.47
2023-03-04T18:46:28.850Z,8.45
2023-03-04T18:49:05.111Z,5.10
2023-03-04T18:51:33.164Z,5.18
2023-03-04T18:54:01.505Z,3.88
2023-03-04T18:56:37.797Z,4.35
2023-03-04T18:59:14.729Z,4.28
2023-03-04T19:01:42.732Z,6.13
2023-03-04T19:04:11.449Z,6.00
2023-03-04T19:06:39.465Z,6.05
2023-03-04T19:09:07.501Z,6.75
2023-03-04T19:11:35.172Z,10.15
2023-03-04T19:14:03.226Z,6.45
2023-03-04T19:16:30.941Z,7.60
2023-03-04T19:18:59.002Z,13.20
2023-03-04T19:21:26.838Z,19.67
2023-03-04T19:23:55.103Z,18.80
2023-03-04T19:26:22.917Z,24.63
2023-03-04T19:28:50.871Z,21.13
2023-03-04T19:31:18.550Z,24.75
2023-03-04T19:33:47.510Z,24.50
2023-03-04T19:36:15.356Z,17.13
2023-03-04T19:38:44.066Z,16.15
2023-03-04T19:41:14.156Z,15.32
2023-03-04T19:43:42.572Z,14.18
2023-03-04T19:46:11.241Z,14.77
2023-03-04T19:48:40.228Z,20.13
2023-03-04T19:51:19.613Z,26.55
2023-03-04T19:53:47.744Z,19.77
2023-03-04T19:56:15.789Z,17.35
2023-03-04T19:58:44.027Z,17.40
2023-03-04T20:01:32.713Z,12.25
2023-03-04T20:04:15.755Z,13.73
2023-03-04T20:06:46.410Z,18.13
2023-03-04T20:09:17.717Z,17.88
2023-03-04T20:11:57.711Z,22.25
2023-03-04T20:14:32.804Z,22.15
2023-03-04T20:19:32.315Z,16.05
2023-03-04T20:22:00.118Z,17.73
2023-03-04T20:24:28.323Z,14.93
2023-03-04T20:26:56.059Z,17.50
2023-03-04T20:29:24.219Z,20.55
2023-03-04T20:31:51.844Z,20.23
2023-03-04T20:34:19.793Z,18.20
2023-03-04T20:36:47.437Z,14.88
2023-03-04T20:39:28.107Z,14.88
2023-03-04T20:42:00.209Z,11.48
2023-03-04T20:44:28.279Z,13.63
2023-03-04T20:46:56.266Z,11.25
2023-03-04T20:49:29.360Z,12.95
2023-03-04T20:52:03.370Z,15.13
2023-03-04T20:54:31.785Z,22.73
2023-03-04T20:56:59.685Z,16.30
2023-03-04T20:59:28.076Z,24.42
2023-03-04T21:01:55.849Z,17.17
2023-03-04T21:04:23.793Z,18.38
2023-03-04T21:06:53.522Z,30.83
2023-03-04T21:09:22.957Z,24.25
2023-03-04T21:11:51.565Z,22.13
2023-03-04T21:14:30.824Z,20.15
2023-03-04T21:17:01.940Z,13.43
2023-03-04T21:19:33.006Z,37.90
2023-03-04T21:22:02.181Z,32.17
2023-03-04T21:24:35.974Z,26.55
2023-03-04T21:27:04.756Z,18.10
2023-03-04T21:29:32.966Z,17.15
2023-03-04T21:32:23.169Z,18.10
2023-03-04T21:34:53.931Z,15.65
2023-03-04T21:37:23.747Z,13.63
2023-03-04T21:39:52.241Z,12.68
2023-03-04T21:42:20.132Z,14.63
2023-03-04T21:44:50.119Z,15.60
2023-03-04T21:47:20.069Z,16.65
2023-03-04T21:49:48.566Z,32.70
2023-03-04T21:52:17.597Z,40.28
2023-03-04T21:54:46.175Z,24.95
2023-03-04T21:57:14.353Z,18.50
2023-03-04T21:59:42.452Z,17.45
2023-03-04T22:02:19.137Z,13.50
2023-03-04T22:04:47.551Z,10.63
2023-03-04T22:07:15.191Z,13.07
2023-03-04T22:09:43.454Z,11.02
2023-03-04T22:12:11.112Z,11.70
2023-03-04T22:14:39.089Z,8.95
2023-03-04T22:17:06.928Z,15.18
2023-03-04T22:19:34.886Z,10.88
2023-03-04T22:22:02.620Z,13.20
2023-03-04T22:24:30.618Z,11.77
2023-03-04T22:26:59.864Z,14.43
2023-03-04T22:29:28.004Z,10.35
2023-03-04T22:31:55.707Z,10.70
2023-03-04T22:34:23.882Z,11.63
2023-03-04T22:36:51.536Z,21.15
2023-03-04T22:39:19.822Z,22.27
2023-03-04T22:41:47.869Z,19.52
2023-03-04T22:44:15.997Z,13.88
2023-03-04T22:46:43.962Z,10.20
2023-03-04T22:49:13.929Z,14.00
2023-03-04T22:51:43.417Z,13.63
2023-03-04T22:54:16.172Z,8.98
2023-03-04T22:56:44.135Z,12.95
2023-03-04T22:59:12.425Z,9.98
2023-03-04T23:01:41.013Z,11.43
2023-03-04T23:04:08.941Z,14.07
2023-03-04T23:06:37.714Z,9.90
2023-03-04T23:09:05.920Z,8.75
2023-03-04T23:11:39.417Z,12.55
2023-03-04T23:14:09.203Z,10.25
2023-03-04T23:16:42.404Z,9.00
2023-03-04T23:19:16.171Z,7.65
2023-03-04T23:21:44.624Z,9.40
2023-03-04T23:24:13.439Z,8.32
2023-03-04T23:26:42.221Z,8.70
2023-03-04T23:29:14.237Z,6.13
2023-03-04T23:31:42.713Z,10.45
2023-03-04T23:34:11.418Z,11.48
2023-03-04T23:36:39.231Z,8.20
2023-03-04T23:39:07.823Z,8.82
2023-03-04T23:41:35.863Z,10.68
2023-03-04T23:44:04.379Z,12.18
2023-03-04T23:46:32.407Z,7.93
2023-03-04T23:49:00.490Z,9.40
2023-03-04T23:51:29.891Z,8.18
2023-03-04T23:53:58.583Z,9.30
2023-03-04T23:56:29.099Z,8.00
2023-03-04T23:58:58.644Z,8.10
